createdAt,value
2019-01-27T00:00:33.098Z,977.74
2019-01-27T00:01:33.071Z,977.65
2019-01-27T00:02:33.052Z,977.62
2019-01-27T00:03:33.041Z,977.63
2019-01-27T00:04:33.032Z,977.58
2019-01-27T00:05:33.037Z,977.52
2019-01-27T00:06:33.018Z,977.41
2019-01-27T00:07:33.001Z,977.44
2019-01-27T00:08:32.991Z,977.32
2019-01-27T00:09:32.984Z,977.33
2019-01-27T00:10:32.980Z,977.30
2019-01-27T00:11:32.957Z,977.28
2019-01-27T00:12:32.955Z,977.23
2019-01-27T00:13:32.940Z,977.12
2019-01-27T00:14:32.924Z,977.13
2019-01-27T00:15:32.927Z,977.17
2019-01-27T00:16:32.905Z,977.14
2019-01-27T00:17:32.894Z,977.13
2019-01-27T00:18:32.889Z,977.04
2019-01-27T00:19:32.913Z,977.04
2019-01-27T00:20:32.886Z,977.03
2019-01-27T00:21:32.853Z,977.06
2019-01-27T00:22:32.838Z,977.02
2019-01-27T00:23:32.833Z,977.01
2019-01-27T00:24:32.826Z,977.01
2019-01-27T00:25:32.881Z,976.97
2019-01-27T00:26:32.798Z,976.92
2019-01-27T00:27:32.805Z,976.91
2019-01-27T00:28:32.778Z,976.95
2019-01-27T00:29:32.763Z,976.99
2019-01-27T00:30:32.766Z,976.99
2019-01-27T00:31:32.758Z,976.93
2019-01-27T00:32:32.735Z,976.92
2019-01-27T00:33:32.721Z,976.98
2019-01-27T00:34:32.710Z,976.90
2019-01-27T00:35:32.717Z,976.88
2019-01-27T00:36:32.707Z,976.95
2019-01-27T00:37:32.688Z,976.96
2019-01-27T00:38:32.674Z,976.92
2019-01-27T00:39:32.661Z,977.00
2019-01-27T00:40:32.670Z,976.93
2019-01-27T00:41:32.636Z,977.05
2019-01-27T00:42:32.626Z,976.97
2019-01-27T00:43:32.628Z,977.00
2019-01-27T00:44:32.628Z,976.97
2019-01-27T00:45:32.609Z,976.95
2019-01-27T00:46:32.585Z,976.90
2019-01-27T00:47:32.581Z,976.86
2019-01-27T00:48:32.580Z,976.83
2019-01-27T00:49:32.553Z,976.81
2019-01-27T00:50:32.574Z,976.84
2019-01-27T00:51:32.580Z,976.83
2019-01-27T00:52:32.554Z,976.81
2019-01-27T00:53:32.510Z,976.70
2019-01-27T00:54:32.498Z,976.71
2019-01-27T00:55:32.501Z,976.70
2019-01-27T00:56:32.490Z,976.67
2019-01-27T00:57:32.467Z,976.69
2019-01-27T00:58:32.459Z,976.61
2019-01-27T00:59:32.447Z,976.62
2019-01-27T01:00:38.906Z,976.52
2019-01-27T01:01:59.334Z,976.65
2019-01-27T01:02:50.838Z,976.49
2019-01-27T01:05:29.093Z,976.48
2019-01-27T01:07:22.143Z,976.41
2019-01-27T01:08:22.871Z,976.41
2019-01-27T01:09:19.366Z,976.43
2019-01-27T01:10:28.714Z,976.35
2019-01-27T01:12:48.655Z,976.33
2019-01-27T01:14:30.070Z,976.28
2019-01-27T01:15:30.035Z,976.12
2019-01-27T01:16:30.042Z,976.25
2019-01-27T01:17:30.040Z,976.26
2019-01-27T01:18:30.003Z,976.25
2019-01-27T01:19:29.994Z,976.14
2019-01-27T01:20:29.991Z,976.10
2019-01-27T01:21:30.005Z,976.08
2019-01-27T01:22:29.961Z,976.03
2019-01-27T01:23:29.949Z,976.02
2019-01-27T01:24:29.944Z,976.16
2019-01-27T01:25:29.928Z,976.04
2019-01-27T01:26:29.938Z,976.01
2019-01-27T01:27:29.908Z,976.00
2019-01-27T01:28:29.896Z,976.04
2019-01-27T01:29:29.886Z,976.00
2019-01-27T01:30:29.877Z,976.07
2019-01-27T01:31:29.890Z,975.98
2019-01-27T01:32:29.867Z,975.94
2019-01-27T01:33:29.844Z,975.98
2019-01-27T01:34:29.838Z,975.96
2019-01-27T01:35:29.828Z,975.92
2019-01-27T01:36:29.834Z,975.89
2019-01-27T01:37:29.800Z,975.90
2019-01-27T01:38:29.798Z,975.91
2019-01-27T01:39:29.779Z,975.98
2019-01-27T01:40:29.788Z,975.90
2019-01-27T01:41:29.771Z,975.92
2019-01-27T01:42:29.748Z,975.78
2019-01-27T01:43:29.738Z,975.74
2019-01-27T01:44:29.729Z,975.75
2019-01-27T01:45:29.716Z,975.78
2019-01-27T01:46:29.731Z,975.78
2019-01-27T01:47:29.697Z,975.73
2019-01-27T01:48:29.684Z,975.71
2019-01-27T01:49:29.675Z,975.66
2019-01-27T01:50:29.672Z,975.68
2019-01-27T01:51:29.653Z,975.63
2019-01-27T01:52:29.656Z,975.61
2019-01-27T01:53:29.633Z,975.51
2019-01-27T01:54:29.624Z,975.51
2019-01-27T01:55:29.626Z,975.49
2019-01-27T01:56:29.625Z,975.56
2019-01-27T01:57:29.633Z,975.46
2019-01-27T01:58:29.588Z,975.50
2019-01-27T01:59:29.570Z,975.39
2019-01-27T02:00:29.558Z,975.21
2019-01-27T02:01:29.548Z,975.25
2019-01-27T02:02:29.675Z,975.29
2019-01-27T02:03:29.526Z,975.27
2019-01-27T02:04:29.519Z,975.30
2019-01-27T02:05:29.510Z,975.27
2019-01-27T02:06:29.525Z,975.21
2019-01-27T02:07:29.504Z,975.30
2019-01-27T02:08:29.497Z,975.25
2019-01-27T02:09:29.463Z,975.19
2019-01-27T02:10:29.454Z,975.14
2019-01-27T02:11:29.444Z,975.15
2019-01-27T02:12:29.448Z,975.13
2019-01-27T02:13:29.422Z,975.07
2019-01-27T02:14:29.419Z,975.10
2019-01-27T02:15:29.403Z,975.06
2019-01-27T02:16:29.391Z,974.96
2019-01-27T02:17:29.395Z,974.98
2019-01-27T02:18:29.370Z,974.94
2019-01-27T02:19:29.361Z,975.01
2019-01-27T02:20:29.392Z,974.98
2019-01-27T02:21:29.336Z,974.88
2019-01-27T02:22:29.338Z,974.94
2019-01-27T02:23:29.317Z,974.95
2019-01-27T02:24:29.305Z,974.86
2019-01-27T02:25:36.506Z,974.79
2019-01-27T02:26:29.284Z,974.85
2019-01-27T02:27:29.288Z,974.75
2019-01-27T02:28:29.270Z,974.77
2019-01-27T02:29:29.262Z,974.84
2019-01-27T02:30:29.256Z,974.77
2019-01-27T02:31:29.251Z,974.62
2019-01-27T02:32:29.242Z,974.72
2019-01-27T02:33:29.210Z,974.51
2019-01-27T02:34:29.908Z,974.65
2019-01-27T02:35:29.191Z,974.53
2019-01-27T02:36:29.187Z,974.60
2019-01-27T02:37:29.205Z,974.63
2019-01-27T02:38:29.161Z,974.66
2019-01-27T02:39:29.172Z,974.46
2019-01-27T02:40:29.136Z,974.51
2019-01-27T02:41:29.151Z,974.51
2019-01-27T02:42:29.121Z,974.42
2019-01-27T02:43:29.126Z,974.37
2019-01-27T02:44:29.108Z,974.40
2019-01-27T02:45:29.083Z,974.34
2019-01-27T02:46:29.071Z,974.43
2019-01-27T02:47:29.061Z,974.34
2019-01-27T02:48:29.104Z,974.35
2019-01-27T02:49:29.059Z,974.32
2019-01-27T02:50:29.031Z,974.22
2019-01-27T02:51:29.035Z,974.27
2019-01-27T02:52:29.014Z,974.21
2019-01-27T02:53:29.011Z,974.18
2019-01-27T02:54:28.990Z,974.20
2019-01-27T02:55:28.994Z,974.13
2019-01-27T02:56:28.968Z,974.20
2019-01-27T02:57:28.973Z,974.10
2019-01-27T02:58:28.968Z,974.08
2019-01-27T02:59:28.936Z,974.02
2019-01-27T03:00:28.929Z,974.01
2019-01-27T03:01:28.914Z,973.95
2019-01-27T03:02:28.909Z,973.99
2019-01-27T03:03:28.914Z,974.02
2019-01-27T03:04:28.882Z,973.96
2019-01-27T03:05:28.870Z,974.05
2019-01-27T03:06:28.864Z,973.90
2019-01-27T03:07:28.850Z,973.92
2019-01-27T03:08:28.871Z,973.85
2019-01-27T03:09:28.834Z,973.87
2019-01-27T03:10:28.822Z,973.84
2019-01-27T03:11:28.823Z,973.80
2019-01-27T03:12:28.798Z,973.79
2019-01-27T03:13:28.819Z,973.71
2019-01-27T03:14:29.720Z,973.73
2019-01-27T03:15:28.766Z,973.75
2019-01-27T03:16:28.756Z,973.68
2019-01-27T03:17:28.746Z,973.67
2019-01-27T03:18:28.751Z,973.74
2019-01-27T03:19:28.726Z,973.65
2019-01-27T03:20:28.714Z,973.67
2019-01-27T03:21:28.709Z,973.64
2019-01-27T03:22:28.695Z,973.66
2019-01-27T03:23:28.702Z,973.60
2019-01-27T03:24:28.675Z,973.67
2019-01-27T03:25:28.667Z,973.60
2019-01-27T03:26:28.650Z,973.58
2019-01-27T03:27:28.643Z,973.59
2019-01-27T03:28:28.652Z,973.57
2019-01-27T03:29:28.620Z,973.60
2019-01-27T03:30:28.608Z,973.61
2019-01-27T03:31:28.615Z,973.63
2019-01-27T03:32:28.599Z,973.66
2019-01-27T03:33:28.580Z,973.56
2019-01-27T03:34:28.584Z,973.58
2019-01-27T03:35:28.573Z,973.49
2019-01-27T03:36:28.548Z,973.54
2019-01-27T03:37:28.573Z,973.47
2019-01-27T03:38:28.533Z,973.55
2019-01-27T03:39:28.526Z,973.44
2019-01-27T03:40:28.528Z,973.38
2019-01-27T03:41:28.500Z,973.45
2019-01-27T03:42:28.484Z,973.42
2019-01-27T03:43:28.478Z,973.35
2019-01-27T03:44:28.482Z,973.35
2019-01-27T03:45:28.449Z,973.43
2019-01-27T03:46:28.456Z,973.38
2019-01-27T03:47:28.430Z,973.38
2019-01-27T03:48:28.421Z,973.31
2019-01-27T03:49:28.425Z,973.34
2019-01-27T03:50:28.402Z,973.19
2019-01-27T03:51:28.413Z,973.26
2019-01-27T03:52:28.378Z,973.19
2019-01-27T03:53:28.366Z,973.20
2019-01-27T03:54:28.377Z,973.18
2019-01-27T03:55:28.352Z,973.18
2019-01-27T03:56:28.335Z,973.17
2019-01-27T03:57:28.330Z,973.03
2019-01-27T03:58:28.315Z,973.06
2019-01-27T03:59:28.320Z,973.10
2019-01-27T04:00:28.318Z,973.06
2019-01-27T04:01:28.300Z,973.01
2019-01-27T04:02:28.273Z,972.87
2019-01-27T04:03:28.271Z,972.86
2019-01-27T04:04:28.279Z,972.90
2019-01-27T04:05:28.265Z,972.85
2019-01-27T04:06:28.236Z,972.81
2019-01-27T04:07:28.256Z,972.75
2019-01-27T04:08:28.214Z,972.62
2019-01-27T04:09:28.229Z,972.60
2019-01-27T04:10:28.189Z,972.60
2019-01-27T04:11:28.190Z,972.62
2019-01-27T04:12:28.168Z,972.57
2019-01-27T04:13:28.173Z,972.57
2019-01-27T04:14:28.145Z,972.56
2019-01-27T04:15:28.165Z,972.52
2019-01-27T04:16:28.457Z,972.43
2019-01-27T04:17:28.114Z,972.49
2019-01-27T04:18:28.108Z,972.46
2019-01-27T04:19:28.104Z,972.47
2019-01-27T04:20:28.098Z,972.39
2019-01-27T04:21:28.075Z,972.44
2019-01-27T04:22:28.062Z,972.41
2019-01-27T04:23:28.071Z,972.38
2019-01-27T04:24:28.041Z,972.36
2019-01-27T04:25:28.084Z,972.35
2019-01-27T04:26:28.088Z,972.32
2019-01-27T04:27:28.017Z,972.31
2019-01-27T04:28:28.005Z,972.23
2019-01-27T04:29:27.992Z,972.17
2019-01-27T04:30:27.995Z,972.19
2019-01-27T04:31:27.997Z,972.16
2019-01-27T04:32:27.965Z,972.13
2019-01-27T04:33:28.781Z,972.03
2019-01-27T04:34:27.940Z,972.04
2019-01-27T04:35:27.945Z,972.02
2019-01-27T04:36:27.915Z,971.99
2019-01-27T04:37:27.915Z,971.79
2019-01-27T04:38:27.895Z,971.70
2019-01-27T04:39:27.883Z,971.81
2019-01-27T04:40:27.893Z,971.82
2019-01-27T04:41:27.863Z,971.81
2019-01-27T04:42:27.849Z,971.77
2019-01-27T04:43:27.846Z,971.71
2019-01-27T04:44:27.843Z,971.75
2019-01-27T04:45:27.833Z,971.68
2019-01-27T04:46:27.817Z,971.67
2019-01-27T04:47:27.797Z,971.58
2019-01-27T04:48:27.791Z,971.50
2019-01-27T04:49:27.783Z,971.68
2019-01-27T04:50:27.791Z,971.61
2019-01-27T04:51:27.764Z,971.67
2019-01-27T04:52:27.765Z,971.65
2019-01-27T04:53:27.735Z,971.64
2019-01-27T04:54:27.725Z,971.61
2019-01-27T04:55:27.742Z,971.59
2019-01-27T04:56:27.738Z,971.57
2019-01-27T04:57:27.698Z,971.58
2019-01-27T04:58:27.685Z,971.51
2019-01-27T04:59:27.670Z,971.51
2019-01-27T05:00:27.679Z,971.44
2019-01-27T05:01:27.654Z,971.48
2019-01-27T05:02:27.640Z,971.37
2019-01-27T05:03:27.635Z,971.41
2019-01-27T05:04:27.618Z,971.39
2019-01-27T05:05:28.621Z,971.40
2019-01-27T05:06:27.601Z,971.33
2019-01-27T05:07:27.587Z,971.36
2019-01-27T05:08:27.578Z,971.30
2019-01-27T05:09:27.585Z,971.32
2019-01-27T05:10:27.567Z,971.29
2019-01-27T05:11:27.543Z,971.24
2019-01-27T05:12:27.535Z,971.23
2019-01-27T05:13:27.522Z,971.15
2019-01-27T05:14:27.515Z,971.30
2019-01-27T05:15:27.515Z,971.28
2019-01-27T05:16:27.514Z,971.26
2019-01-27T05:17:27.486Z,971.24
2019-01-27T05:18:27.470Z,971.27
2019-01-27T05:19:28.125Z,971.17
2019-01-27T05:22:20.711Z,971.23
2019-01-27T05:23:12.631Z,971.16
2019-01-27T05:24:12.635Z,971.12
2019-01-27T05:25:36.505Z,971.11
2019-01-27T05:26:14.802Z,971.10
2019-01-27T05:27:13.374Z,971.09
2019-01-27T05:28:13.892Z,971.07
2019-01-27T05:29:14.514Z,971.08
2019-01-27T05:30:19.334Z,971.13
2019-01-27T05:31:13.915Z,971.12
2019-01-27T05:32:13.307Z,971.10
2019-01-27T05:33:12.015Z,971.18
2019-01-27T05:34:12.402Z,971.04
2019-01-27T05:35:12.920Z,971.04
2019-01-27T05:36:16.203Z,971.04
2019-01-27T05:37:14.170Z,971.06
2019-01-27T05:38:12.954Z,971.04
2019-01-27T05:39:16.452Z,971.01
2019-01-27T05:40:21.454Z,971.02
2019-01-27T05:41:22.588Z,970.96
2019-01-27T05:42:14.615Z,970.98
2019-01-27T05:43:12.465Z,970.90
2019-01-27T05:44:12.175Z,970.96
2019-01-27T05:45:13.607Z,970.97
2019-01-27T05:46:14.126Z,970.93
2019-01-27T05:47:24.052Z,970.87
2019-01-27T05:48:19.158Z,970.89
2019-01-27T05:49:13.019Z,971.00
2019-01-27T05:50:14.769Z,971.06
2019-01-27T05:51:14.264Z,970.90
2019-01-27T05:52:13.349Z,970.94
2019-01-27T05:53:12.642Z,970.82
2019-01-27T05:54:12.134Z,970.93
2019-01-27T05:55:12.243Z,970.91
2019-01-27T05:56:58.740Z,970.90
2019-01-27T05:57:42.878Z,970.89
2019-01-27T05:58:16.872Z,970.83
2019-01-27T05:59:13.710Z,970.89
2019-01-27T06:00:14.531Z,970.78
2019-01-27T06:01:19.147Z,970.75
2019-01-27T06:02:12.233Z,970.83
2019-01-27T06:03:11.214Z,970.80
2019-01-27T06:04:11.204Z,970.83
2019-01-27T06:05:11.194Z,970.71
2019-01-27T06:06:11.204Z,970.80
2019-01-27T06:07:11.198Z,970.80
2019-01-27T06:08:11.164Z,970.78
2019-01-27T06:09:11.175Z,970.76
2019-01-27T06:10:11.140Z,970.76
2019-01-27T06:11:11.142Z,970.74
2019-01-27T06:12:11.908Z,970.77
2019-01-27T06:13:11.121Z,970.74
2019-01-27T06:14:11.098Z,970.72
2019-01-27T06:15:11.086Z,970.74
2019-01-27T06:16:11.091Z,970.73
2019-01-27T06:17:11.072Z,970.75
2019-01-27T06:18:11.646Z,970.74
2019-01-27T06:19:11.056Z,970.72
2019-01-27T06:20:11.035Z,970.75
2019-01-27T06:21:11.039Z,970.70
2019-01-27T06:22:11.013Z,970.73
2019-01-27T06:23:11.001Z,970.68
2019-01-27T06:24:11.014Z,970.71
2019-01-27T06:25:11.029Z,970.64
2019-01-27T06:26:15.736Z,970.55
2019-01-27T06:27:11.057Z,970.55
2019-01-27T06:28:29.006Z,970.53
2019-01-27T06:29:13.857Z,970.49
2019-01-27T06:30:14.550Z,970.49
2019-01-27T06:31:21.717Z,970.53
2019-01-27T06:32:10.915Z,970.57
2019-01-27T06:33:10.900Z,970.50
2019-01-27T06:34:10.881Z,970.47
2019-01-27T06:35:10.873Z,970.46
2019-01-27T06:36:10.873Z,970.42
2019-01-27T06:37:10.851Z,970.47
2019-01-27T06:38:10.841Z,970.39
2019-01-27T06:39:10.835Z,970.37
2019-01-27T06:40:10.816Z,970.31
2019-01-27T06:41:10.825Z,970.29
2019-01-27T06:42:10.794Z,970.27
2019-01-27T06:43:10.803Z,970.16
2019-01-27T06:44:10.775Z,970.21
2019-01-27T06:45:10.764Z,970.13
2019-01-27T06:46:10.774Z,970.13
2019-01-27T06:47:10.743Z,970.07
2019-01-27T06:48:10.733Z,970.11
2019-01-27T06:49:10.731Z,970.05
2019-01-27T06:50:10.713Z,970.13
2019-01-27T06:51:10.772Z,970.09
2019-01-27T06:52:10.701Z,970.10
2019-01-27T06:53:10.675Z,970.12
2019-01-27T06:54:10.691Z,970.09
2019-01-27T06:55:10.670Z,970.09
2019-01-27T06:56:10.657Z,970.05
2019-01-27T06:57:10.639Z,970.02
2019-01-27T06:58:10.624Z,970.04
2019-01-27T06:59:10.618Z,970.10
2019-01-27T07:00:10.640Z,970.12
2019-01-27T07:01:10.607Z,970.09
2019-01-27T07:02:14.525Z,970.15
2019-01-27T07:03:10.596Z,970.04
2019-01-27T07:04:10.558Z,969.98
2019-01-27T07:05:10.878Z,970.04
2019-01-27T07:06:13.499Z,970.06
2019-01-27T07:07:28.144Z,969.96
2019-01-27T07:09:34.101Z,970.10
2019-01-27T07:10:47.695Z,970.08
2019-01-27T07:11:32.905Z,970.04
2019-01-27T07:12:32.336Z,970.12
2019-01-27T07:13:36.751Z,970.05
2019-01-27T07:14:38.158Z,970.03
2019-01-27T07:15:35.089Z,970.04
2019-01-27T07:16:54.685Z,969.95
2019-01-27T07:17:32.618Z,969.98
2019-01-27T07:18:35.180Z,970.00
2019-01-27T07:19:49.775Z,969.81
2019-01-27T07:20:45.162Z,969.85
2019-01-27T07:23:42.541Z,969.89
2019-01-27T07:24:36.513Z,969.99
2019-01-27T07:25:54.806Z,969.89
2019-01-27T07:26:46.368Z,969.92
2019-01-27T07:28:21.810Z,969.98
2019-01-27T07:28:49.321Z,969.99
2019-01-27T07:29:40.005Z,969.90
2019-01-27T07:30:38.841Z,969.93
2019-01-27T07:35:06.870Z,970.04
2019-01-27T07:36:13.290Z,969.92
2019-01-27T07:37:35.942Z,969.84
2019-01-27T07:38:12.282Z,969.88
2019-01-27T07:39:40.459Z,969.83
2019-01-27T07:40:26.495Z,969.82
2019-01-27T07:41:12.936Z,969.84
2019-01-27T07:42:08.431Z,969.77
2019-01-27T07:43:06.964Z,969.79
2019-01-27T07:44:12.839Z,969.84
2019-01-27T07:45:46.156Z,969.76
2019-01-27T07:46:14.823Z,969.74
2019-01-27T07:47:39.373Z,969.64
2019-01-27T07:49:21.533Z,969.70
2019-01-27T07:50:19.638Z,969.77
2019-01-27T07:51:49.704Z,969.74
2019-01-27T07:53:47.700Z,969.62
2019-01-27T07:54:44.642Z,969.50
2019-01-27T07:55:59.705Z,969.49
2019-01-27T07:56:39.706Z,969.43
2019-01-27T07:57:41.273Z,969.41
2019-01-27T07:58:40.045Z,969.38
2019-01-27T07:59:37.629Z,969.32
2019-01-27T08:00:38.201Z,969.31
2019-01-27T08:01:37.659Z,969.25
2019-01-27T08:02:53.658Z,969.25
2019-01-27T08:03:37.753Z,969.23
2019-01-27T08:04:37.693Z,969.30
2019-01-27T08:05:38.111Z,969.29
2019-01-27T08:06:38.091Z,969.27
2019-01-27T08:07:37.855Z,969.23
2019-01-27T08:08:38.380Z,969.25
2019-01-27T08:09:38.543Z,969.20
2019-01-27T08:10:39.121Z,969.22
2019-01-27T08:11:38.185Z,969.22
2019-01-27T08:12:38.108Z,969.25
2019-01-27T08:13:38.218Z,969.33
2019-01-27T08:14:37.524Z,969.29
2019-01-27T08:15:38.708Z,969.29
2019-01-27T08:25:56.998Z,969.33
2019-01-27T08:26:52.393Z,969.32
2019-01-27T08:31:33.382Z,969.31
2019-01-27T08:42:22.005Z,969.26
2019-01-27T08:47:29.892Z,969.23
2019-01-27T08:58:08.116Z,968.89
2019-01-27T09:00:58.344Z,968.92
2019-01-27T09:02:37.716Z,968.96
2019-01-27T09:08:03.628Z,968.98
2019-01-27T09:09:57.746Z,968.92
2019-01-27T09:18:35.142Z,968.86
2019-01-27T09:20:00.404Z,968.88
2019-01-27T09:25:57.249Z,968.71
2019-01-27T09:30:53.147Z,968.79
2019-01-27T09:31:53.697Z,968.86
2019-01-27T09:32:53.240Z,968.76
2019-01-27T09:34:38.206Z,968.71
2019-01-27T09:35:42.395Z,968.69
